»·PEaware :: N51254 KBUR-KFUL

N51254 :: KBUR-KFUL

FLIGHT INFORMATION

Flight Status: Arrived
Operator: Privately registered:
United States
More flights under this callsign
Pilot: Hasan B. (9605)
Aircraft: CESSNA 172 SKYHAWK
(C172)
More flights by this aircraft type
Origin: KBUR Bob Hope-Burbank
United States
Destination: KFUL Fullerton Mun
United States
More flights between these airports :: More routes between these airports
Route: +
File this flight plan on PilotEdge
Remarks:
Altitude:
(Current/Filed)
3,500ft
Speed:
(Current/Filed)
0kts
Departed: 05-Oct-18 10:07 AM
Arrived: 05-Oct-18 10:45 AM
Distance/Time
Traveled:
27nm/0:38
Distance/Time
To Go:
Arrived

Flight Plot

Page will automatically refresh every two minutes.


Map Options




Map Legend


Flown Route
Filed Route
Departure Airport
Arrival Airport
Navaid (VOR, NDB)
Fix

Horizontal Profiles

Position Reports

Time Latitude Longitude Heading Altitude Ground
Speed
05-Oct-18 10:00 34.210738 -118.357956 256 758ft 0kts
05-Oct-18 10:01 34.210738 -118.357956 256 758ft 0kts
05-Oct-18 10:02 34.210738 -118.357956 256 758ft 0kts
05-Oct-18 10:03 34.210738 -118.357956 256 758ft 0kts
05-Oct-18 10:04 34.210707 -118.358040 237 758ft 4kts
05-Oct-18 10:05 34.209958 -118.358711 204 756ft 1kts
05-Oct-18 10:06 34.211665 -118.359061 310 763ft 0kts
05-Oct-18 10:07 34.211665 -118.359061 310 763ft 0kts
05-Oct-18 10:08 34.210521 -118.359982 168 763ft 38kts
05-Oct-18 10:09 34.198506 -118.356879 163 1044ft 82kts
05-Oct-18 10:10 34.187005 -118.349797 119 1502ft 85kts
05-Oct-18 10:11 34.182421 -118.332913 106 1853ft 98kts
05-Oct-18 10:12 34.178387 -118.313376 100 2205ft 103kts
05-Oct-18 10:13 34.173233 -118.295342 110 2300ft 97kts
05-Oct-18 10:14 34.168441 -118.278654 108 2303ft 96kts
05-Oct-18 10:15 34.163693 -118.261830 110 2291ft 97kts
05-Oct-18 10:16 34.159719 -118.242115 99 2516ft 105kts
05-Oct-18 10:17 34.157538 -118.221874 93 2887ft 102kts
05-Oct-18 10:18 34.157330 -118.200980 90 3224ft 105kts
05-Oct-18 10:19 34.157937 -118.180731 87 3377ft 98kts
05-Oct-18 10:20 34.158491 -118.162192 89 3426ft 102kts
05-Oct-18 10:21 34.154261 -118.144423 128 3380ft 102kts
05-Oct-18 10:22 34.143895 -118.130335 136 3362ft 100kts
05-Oct-18 10:23 34.132870 -118.118035 129 3402ft 94kts
05-Oct-18 10:24 34.124380 -118.103318 125 3397ft 95kts
05-Oct-18 10:25 34.115967 -118.089063 121 3412ft 93kts
05-Oct-18 10:26 34.107238 -118.074581 128 3422ft 93kts
05-Oct-18 10:27 34.098396 -118.060996 123 3401ft 96kts
05-Oct-18 10:28 34.090136 -118.045890 125 3399ft 97kts
05-Oct-18 10:29 34.079326 -118.034371 162 3415ft 98kts
05-Oct-18 10:30 34.063085 -118.030440 169 3406ft 99kts
05-Oct-18 10:31 34.047890 -118.027241 168 3414ft 99kts
05-Oct-18 10:32 34.029571 -118.022703 168 3311ft 98kts
05-Oct-18 10:33 34.012814 -118.018441 167 2914ft 98kts
05-Oct-18 10:34 33.998043 -118.014703 168 2586ft 96kts
05-Oct-18 10:35 33.981532 -118.011269 172 2200ft 95kts
05-Oct-18 10:36 33.965755 -118.008943 173 1849ft 95kts
05-Oct-18 10:37 33.951541 -118.006794 172 1630ft 93kts
05-Oct-18 10:38 33.936677 -118.003850 169 1610ft 102kts
05-Oct-18 10:39 33.920021 -117.999845 168 1762ft 92kts
05-Oct-18 10:40 33.907060 -117.993440 143 1278ft 90kts
05-Oct-18 10:41 33.895928 -117.983934 160 1024ft 86kts
05-Oct-18 10:42 33.883100 -117.980618 122 1083ft 77kts
05-Oct-18 10:43 33.883961 -117.966289 75 1004ft 73kts
05-Oct-18 10:44 33.882644 -117.955234 172 788ft 73kts
05-Oct-18 10:45 33.876202 -117.962755 233 461ft 59kts
05-Oct-18 10:46 33.873149 -117.974019 255 138ft 60kts
05-Oct-18 10:47 33.871783 -117.979379 174 92ft 6kts
05-Oct-18 10:48 33.871714 -117.979365 166 92ft 0kts
05-Oct-18 10:49 33.871505 -117.979301 162 92ft 0kts
05-Oct-18 10:50 33.871497 -117.979298 161 92ft 0kts

Navigation Log

Ident Type
Flight plan parsing failed, navigation log unavailable